createdAt,value
2023-05-06T00:00:25.592Z,14.5917
2023-05-06T00:01:26.583Z,14.5981
2023-05-06T00:02:27.590Z,14.6058
2023-05-06T00:03:28.958Z,14.6153
2023-05-06T00:04:29.219Z,14.6216
2023-05-06T00:05:29.371Z,14.6262
2023-05-06T00:06:29.910Z,14.6289
2023-05-06T00:07:30.720Z,14.6294
2023-05-06T00:08:31.481Z,14.6311
2023-05-06T00:09:31.863Z,14.6319
2023-05-06T00:10:32.518Z,14.6365
2023-05-06T00:11:33.122Z,14.6416
2023-05-06T00:12:33.866Z,14.6481
2023-05-06T00:13:34.571Z,14.6547
2023-05-06T00:14:35.376Z,14.6614
2023-05-06T00:15:36.267Z,14.6695
2023-05-06T00:16:37.231Z,14.6788
2023-05-06T00:17:38.488Z,14.6866
2023-05-06T00:18:39.270Z,14.6947
2023-05-06T00:19:40.126Z,14.7011
2023-05-06T00:20:40.743Z,14.7092
2023-05-06T00:21:41.130Z,14.7156
2023-05-06T00:22:41.734Z,14.7182
2023-05-06T00:23:42.541Z,14.7178
2023-05-06T00:24:43.543Z,14.7152
2023-05-06T00:25:43.759Z,14.7108
2023-05-06T00:26:44.115Z,14.7071
2023-05-06T00:27:45.115Z,14.7025
2023-05-06T00:28:45.410Z,14.6966
2023-05-06T00:29:45.935Z,14.6940
2023-05-06T00:30:46.742Z,14.6921
2023-05-06T00:31:47.386Z,14.6915
2023-05-06T00:32:47.798Z,14.6921
2023-05-06T00:33:48.444Z,14.6937
2023-05-06T00:34:49.000Z,14.6966
2023-05-06T00:35:49.677Z,14.6973
2023-05-06T00:36:50.270Z,14.7001
2023-05-06T00:37:51.198Z,14.7051
2023-05-06T00:38:51.613Z,14.7094
2023-05-06T00:39:52.370Z,14.7142
2023-05-06T00:40:53.073Z,14.7214
2023-05-06T00:41:53.780Z,14.7273
2023-05-06T00:42:54.636Z,14.7336
2023-05-06T00:43:55.063Z,14.7383
2023-05-06T00:44:55.596Z,14.7435
2023-05-06T00:45:55.606Z,14.7476
2023-05-06T00:46:56.247Z,14.7530
2023-05-06T00:47:56.961Z,14.7580
2023-05-06T00:48:57.496Z,14.7619
2023-05-06T00:49:58.040Z,14.7657
2023-05-06T00:50:58.575Z,14.7677
2023-05-06T00:51:59.039Z,14.7689
2023-05-06T00:52:59.786Z,14.7677
2023-05-06T00:54:00.470Z,14.7670
2023-05-06T00:55:01.079Z,14.7644
2023-05-06T00:56:01.762Z,14.7621
2023-05-06T00:57:02.458Z,14.7602
2023-05-06T00:58:03.441Z,14.7584
2023-05-06T00:59:03.956Z,14.7554
2023-05-06T01:00:04.669Z,14.7520
2023-05-06T01:01:05.726Z,14.7480
2023-05-06T01:02:06.675Z,14.7440
2023-05-06T01:03:07.748Z,14.7393
2023-05-06T01:04:08.398Z,14.7368
2023-05-06T01:05:09.263Z,14.7358
2023-05-06T01:06:09.850Z,14.7301
2023-05-06T01:07:10.405Z,14.7255
2023-05-06T01:08:11.178Z,14.7193
2023-05-06T01:09:12.046Z,14.7132
2023-05-06T01:10:12.739Z,14.7096
2023-05-06T01:11:15.625Z,14.7065
2023-05-06T01:12:13.989Z,14.7043
2023-05-06T01:13:15.184Z,14.7046
2023-05-06T01:14:16.073Z,14.7055
2023-05-06T01:15:16.251Z,14.7087
2023-05-06T01:16:17.350Z,14.7105
2023-05-06T01:17:18.461Z,14.7136
2023-05-06T01:18:18.709Z,14.7176
2023-05-06T01:19:19.406Z,14.7218
2023-05-06T01:20:20.244Z,14.7254
2023-05-06T01:21:20.965Z,14.7272
2023-05-06T01:22:21.835Z,14.7293
2023-05-06T01:23:22.586Z,14.7314
2023-05-06T01:24:23.476Z,14.7354
2023-05-06T01:25:23.790Z,14.7370
2023-05-06T01:26:24.618Z,14.7386
2023-05-06T01:27:25.569Z,14.7387
2023-05-06T01:28:26.496Z,14.7390
2023-05-06T01:29:27.354Z,14.7387
2023-05-06T01:30:28.502Z,14.7388
2023-05-06T01:31:29.407Z,14.7382
2023-05-06T01:32:30.480Z,14.7358
2023-05-06T01:33:31.568Z,14.7322
2023-05-06T01:34:32.508Z,14.7268
2023-05-06T01:35:32.636Z,14.7202
2023-05-06T01:36:33.360Z,14.7121
2023-05-06T01:37:34.511Z,14.7018
2023-05-06T01:38:35.238Z,14.6893
2023-05-06T01:39:36.063Z,14.6761
2023-05-06T01:40:36.973Z,14.6611
2023-05-06T01:41:37.616Z,14.6445
2023-05-06T01:42:38.564Z,14.6273
2023-05-06T01:43:39.236Z,14.6071
2023-05-06T01:44:40.224Z,14.5899
2023-05-06T01:45:41.110Z,14.5762
2023-05-06T01:46:42.215Z,14.5638
2023-05-06T01:47:43.469Z,14.5492
2023-05-06T01:48:44.335Z,14.5362
2023-05-06T01:49:45.271Z,14.5233
2023-05-06T01:50:46.287Z,14.5060
2023-05-06T01:51:47.385Z,14.4897
2023-05-06T01:52:48.280Z,14.4737
2023-05-06T01:53:49.059Z,14.4632
2023-05-06T01:54:50.000Z,14.4582
2023-05-06T01:55:50.937Z,14.4555
2023-05-06T01:56:51.763Z,14.4562
2023-05-06T01:57:52.687Z,14.4591
2023-05-06T01:58:53.383Z,14.4631
2023-05-06T01:59:54.248Z,14.4692
2023-05-06T02:00:55.128Z,14.4756
2023-05-06T02:01:56.062Z,14.4809
2023-05-06T02:02:56.979Z,14.4843
2023-05-06T02:03:57.567Z,14.4887
2023-05-06T02:04:58.783Z,14.4942
2023-05-06T02:05:59.482Z,14.5011
2023-05-06T02:07:00.312Z,14.5074
2023-05-06T02:08:01.240Z,14.5138
2023-05-06T02:09:02.051Z,14.5198
2023-05-06T02:10:02.971Z,14.5250
2023-05-06T02:11:03.629Z,14.5303
2023-05-06T02:12:04.455Z,14.5348
2023-05-06T02:13:05.419Z,14.5403
2023-05-06T02:14:06.288Z,14.5457
2023-05-06T02:15:07.322Z,14.5493
2023-05-06T02:16:08.423Z,14.5523
2023-05-06T02:17:09.677Z,14.5529
2023-05-06T02:18:10.807Z,14.5510
2023-05-06T02:19:11.513Z,14.5463
2023-05-06T02:20:12.407Z,14.5386
2023-05-06T02:21:13.119Z,14.5336
2023-05-06T02:22:13.953Z,14.5309
2023-05-06T02:23:14.624Z,14.5303
2023-05-06T02:24:15.624Z,14.5289
2023-05-06T02:25:16.508Z,14.5284
2023-05-06T02:26:17.322Z,14.5277
2023-05-06T02:27:18.317Z,14.5288
2023-05-06T02:28:19.258Z,14.5317
2023-05-06T02:29:20.177Z,14.5364
2023-05-06T02:30:21.007Z,14.5388
2023-05-06T02:31:21.890Z,14.5379
2023-05-06T02:32:21.990Z,14.5365
2023-05-06T02:33:22.750Z,14.5355
2023-05-06T02:34:23.437Z,14.5355
2023-05-06T02:35:24.045Z,14.5357
2023-05-06T02:36:24.836Z,14.5389
2023-05-06T02:37:25.291Z,14.5415
2023-05-06T02:38:26.017Z,14.5447
2023-05-06T02:39:26.511Z,14.5487
2023-05-06T02:40:27.222Z,14.5528
2023-05-06T02:41:28.130Z,14.5562
2023-05-06T02:42:29.077Z,14.5597
2023-05-06T02:43:30.275Z,14.5623
2023-05-06T02:44:30.384Z,14.5623
2023-05-06T02:45:31.350Z,14.5633
2023-05-06T02:46:32.100Z,14.5624
2023-05-06T02:47:33.041Z,14.5612
2023-05-06T02:48:33.955Z,14.5609
2023-05-06T02:49:34.878Z,14.5619
2023-05-06T02:50:35.809Z,14.5619
2023-05-06T02:51:36.570Z,14.5623
2023-05-06T02:52:37.494Z,14.5627
2023-05-06T02:53:38.224Z,14.5621
2023-05-06T02:54:39.105Z,14.5593
2023-05-06T02:55:40.048Z,14.5542
2023-05-06T02:56:40.764Z,14.5491
2023-05-06T02:57:41.716Z,14.5447
2023-05-06T02:58:42.437Z,14.5416
2023-05-06T02:59:43.395Z,14.5403
2023-05-06T03:00:44.387Z,14.5389
2023-05-06T03:01:45.381Z,14.5384
2023-05-06T03:02:46.322Z,14.5384
2023-05-06T03:03:47.160Z,14.5376
2023-05-06T03:04:48.257Z,14.5377
2023-05-06T03:05:49.364Z,14.5369
2023-05-06T03:06:50.110Z,14.5352
2023-05-06T03:07:51.031Z,14.5327
2023-05-06T03:08:51.802Z,14.5290
2023-05-06T03:09:52.685Z,14.5251
2023-05-06T03:10:53.473Z,14.5212
2023-05-06T03:11:54.436Z,14.5191
2023-05-06T03:12:55.363Z,14.5170
2023-05-06T03:13:56.384Z,14.5129
2023-05-06T03:14:57.459Z,14.5095
2023-05-06T03:15:58.261Z,14.5048
2023-05-06T03:16:59.368Z,14.5005
2023-05-06T03:17:59.705Z,14.4980
2023-05-06T03:19:00.675Z,14.4964
2023-05-06T03:20:01.729Z,14.4953
2023-05-06T03:21:02.527Z,14.4927
2023-05-06T03:22:03.806Z,14.4900
2023-05-06T03:23:04.674Z,14.4849
2023-05-06T03:24:05.577Z,14.4772
2023-05-06T03:25:06.512Z,14.4704
2023-05-06T03:26:06.598Z,14.4637
2023-05-06T03:27:07.640Z,14.4598
2023-05-06T03:28:08.607Z,14.4574
2023-05-06T03:29:09.428Z,14.4535
2023-05-06T03:30:10.517Z,14.4508
2023-05-06T03:31:11.382Z,14.4475
2023-05-06T03:32:11.536Z,14.4444
2023-05-06T03:33:12.871Z,14.4391
2023-05-06T03:34:13.741Z,14.4331
2023-05-06T03:35:14.475Z,14.4256
2023-05-06T03:36:15.270Z,14.4132
2023-05-06T03:37:16.303Z,14.4014
2023-05-06T03:38:17.196Z,14.3873
2023-05-06T03:39:18.294Z,14.3704
2023-05-06T03:40:19.264Z,14.3504
2023-05-06T03:41:19.993Z,14.3277
2023-05-06T03:42:20.724Z,14.3050
2023-05-06T03:43:21.470Z,14.2788
2023-05-06T03:44:22.461Z,14.2568
2023-05-06T03:45:23.383Z,14.2342
2023-05-06T03:46:24.390Z,14.2149
2023-05-06T03:47:25.657Z,14.1954
2023-05-06T03:48:26.759Z,14.1765
2023-05-06T03:49:27.899Z,14.1603
2023-05-06T03:50:28.978Z,14.1449
2023-05-06T03:51:29.987Z,14.1318
2023-05-06T03:52:31.021Z,14.1216
2023-05-06T03:53:31.906Z,14.1152
2023-05-06T03:54:32.883Z,14.1096
2023-05-06T03:55:33.189Z,14.1054
2023-05-06T03:56:34.016Z,14.1005
2023-05-06T03:57:35.296Z,14.0929
2023-05-06T03:58:36.338Z,14.0878
2023-05-06T03:59:37.239Z,14.0800
2023-05-06T04:00:38.355Z,14.0768
2023-05-06T04:01:39.299Z,14.0744
2023-05-06T04:02:39.653Z,14.0744
2023-05-06T04:03:40.015Z,14.0775
2023-05-06T04:04:39.976Z,14.0803
2023-05-06T04:05:41.009Z,14.0832
2023-05-06T04:06:41.947Z,14.0863
2023-05-06T04:07:42.875Z,14.0912
2023-05-06T04:08:43.744Z,14.0971
2023-05-06T04:09:44.738Z,14.1029
2023-05-06T04:10:45.857Z,14.1107
2023-05-06T04:11:45.845Z,14.1174
2023-05-06T04:12:46.881Z,14.1268
2023-05-06T04:13:46.911Z,14.1360
2023-05-06T04:14:47.922Z,14.1462
2023-05-06T04:15:48.723Z,14.1560
2023-05-06T04:16:49.780Z,14.1636
2023-05-06T04:17:50.636Z,14.1717
2023-05-06T04:18:51.687Z,14.1782
2023-05-06T04:19:52.578Z,14.1846
2023-05-06T04:20:53.444Z,14.1918
2023-05-06T04:21:54.565Z,14.1982
2023-05-06T04:22:55.389Z,14.2040
2023-05-06T04:23:56.344Z,14.2090
2023-05-06T04:24:57.416Z,14.2149
2023-05-06T04:25:58.244Z,14.2211
2023-05-06T04:26:59.190Z,14.2266
2023-05-06T04:28:00.155Z,14.2327
2023-05-06T04:29:01.111Z,14.2367
2023-05-06T04:30:02.404Z,14.2410
2023-05-06T04:31:03.187Z,14.2451
2023-05-06T04:32:04.404Z,14.2503
2023-05-06T04:33:05.525Z,14.2529
2023-05-06T04:34:05.885Z,14.2559
2023-05-06T04:35:07.117Z,14.2593
2023-05-06T04:36:08.070Z,14.2619
2023-05-06T04:37:09.173Z,14.2650
2023-05-06T04:38:09.948Z,14.2707
2023-05-06T04:39:11.027Z,14.2770
2023-05-06T04:40:12.090Z,14.2871
2023-05-06T04:41:12.956Z,14.2962
2023-05-06T04:42:14.147Z,14.3057
2023-05-06T04:43:15.082Z,14.3147
2023-05-06T04:44:16.169Z,14.3222
2023-05-06T04:45:17.242Z,14.3290
2023-05-06T04:46:18.395Z,14.3340
2023-05-06T04:47:19.513Z,14.3354
2023-05-06T04:48:20.700Z,14.3327
2023-05-06T04:49:21.829Z,14.3307
2023-05-06T04:50:22.947Z,14.3311
2023-05-06T04:51:24.006Z,14.3355
2023-05-06T04:52:24.108Z,14.3414
2023-05-06T04:53:25.575Z,14.3497
2023-05-06T04:54:26.569Z,14.3557
2023-05-06T04:55:26.986Z,14.3590
2023-05-06T04:56:27.952Z,14.3601
2023-05-06T04:57:29.067Z,14.3602
2023-05-06T04:58:30.161Z,14.3578
2023-05-06T04:59:31.137Z,14.3547
2023-05-06T05:00:32.318Z,14.3496
2023-05-06T05:01:33.561Z,14.3429
2023-05-06T05:02:33.934Z,14.3365
2023-05-06T05:03:34.686Z,14.3295
2023-05-06T05:04:34.622Z,14.3208
2023-05-06T05:05:34.684Z,14.3119
2023-05-06T05:06:35.584Z,14.3011
2023-05-06T05:07:36.743Z,14.2882
2023-05-06T05:08:37.719Z,14.2775
2023-05-06T05:09:38.984Z,14.2707
2023-05-06T05:11:39.704Z,14.2636
2023-05-06T05:12:41.044Z,14.2626
2023-05-06T05:13:40.998Z,14.2602
2023-05-06T05:14:42.148Z,14.2539
2023-05-06T05:15:42.315Z,14.2472
2023-05-06T05:16:43.636Z,14.2448
2023-05-06T05:18:44.427Z,14.2532
2023-05-06T05:19:44.625Z,14.2603
2023-05-06T05:20:45.665Z,14.2680
2023-05-06T05:21:46.825Z,14.2773
2023-05-06T05:22:47.778Z,14.2894
2023-05-06T05:23:49.014Z,14.3044
2023-05-06T05:24:50.124Z,14.3249
2023-05-06T05:25:50.813Z,14.3516
2023-05-06T05:26:51.984Z,14.3849
2023-05-06T05:27:52.926Z,14.4217
2023-05-06T05:28:54.000Z,14.4614
2023-05-06T05:29:55.167Z,14.5031
2023-05-06T05:30:56.379Z,14.5404
2023-05-06T05:31:57.518Z,14.5746
2023-05-06T05:32:59.008Z,14.6106
2023-05-06T05:33:59.021Z,14.6449
2023-05-06T05:35:00.303Z,14.6749
2023-05-06T05:36:01.300Z,14.7004
2023-05-06T05:37:02.492Z,14.7179
2023-05-06T05:38:03.532Z,14.7297
2023-05-06T05:39:04.852Z,14.7354
2023-05-06T05:40:06.021Z,14.7406
2023-05-06T05:41:07.067Z,14.7429
2023-05-06T05:42:08.376Z,14.7455
2023-05-06T05:43:09.597Z,14.7487
2023-05-06T05:44:10.764Z,14.7527
2023-05-06T05:45:11.214Z,14.7585
2023-05-06T05:46:12.280Z,14.7666
2023-05-06T05:47:12.383Z,14.7751
2023-05-06T05:48:13.671Z,14.7801
2023-05-06T05:49:14.870Z,14.7838
2023-05-06T05:50:16.155Z,14.7895
2023-05-06T05:52:16.938Z,14.8174
2023-05-06T05:53:18.166Z,14.8447
2023-05-06T05:54:18.145Z,14.8774
2023-05-06T05:55:19.454Z,14.9093
2023-05-06T05:56:20.038Z,14.9331
2023-05-06T05:57:21.097Z,14.9545
2023-05-06T05:58:22.605Z,14.9678
2023-05-06T06:00:23.566Z,14.9785
2023-05-06T06:01:23.504Z,14.9769
2023-05-06T06:02:24.556Z,14.9706
2023-05-06T06:03:25.652Z,14.9610
2023-05-06T06:04:26.710Z,14.9516
2023-05-06T06:05:27.351Z,14.9447
2023-05-06T06:06:28.661Z,14.9376
2023-05-06T06:07:29.690Z,14.9381
2023-05-06T06:08:30.885Z,14.9457
2023-05-06T06:09:32.103Z,14.9619
2023-05-06T06:10:33.154Z,14.9852
2023-05-06T06:11:34.369Z,15.0135
2023-05-06T06:12:35.411Z,15.0470
2023-05-06T06:13:35.879Z,15.0906
2023-05-06T06:14:36.993Z,15.1474
2023-05-06T06:15:38.277Z,15.1970
2023-05-06T06:16:38.762Z,15.2437
2023-05-06T06:17:38.660Z,15.2878
2023-05-06T06:18:38.850Z,15.3220
2023-05-06T06:19:39.985Z,15.3491
2023-05-06T06:20:41.252Z,15.3682
2023-05-06T06:21:42.356Z,15.3862
2023-05-06T06:22:43.426Z,15.3998
2023-05-06T06:23:44.467Z,15.4052
2023-05-06T06:24:45.595Z,15.4065
2023-05-06T06:25:45.925Z,15.4091
2023-05-06T06:26:46.941Z,15.4143
2023-05-06T06:27:48.202Z,15.4210
2023-05-06T06:28:49.523Z,15.4318
2023-05-06T06:29:50.520Z,15.4452
2023-05-06T06:30:51.845Z,15.4601
2023-05-06T06:31:51.897Z,15.4760
2023-05-06T06:32:51.932Z,15.4902
2023-05-06T06:33:53.136Z,15.5042
2023-05-06T06:34:54.442Z,15.5151
2023-05-06T06:35:54.632Z,15.5264
2023-05-06T06:36:55.853Z,15.5427
2023-05-06T06:37:57.116Z,15.5615
2023-05-06T06:38:58.360Z,15.5795
2023-05-06T06:39:58.172Z,15.5934
2023-05-06T06:40:59.418Z,15.6050
2023-05-06T06:42:00.616Z,15.6147
2023-05-06T06:43:01.644Z,15.6352
2023-05-06T06:44:02.793Z,15.6640
2023-05-06T06:45:04.075Z,15.6925
2023-05-06T06:46:05.239Z,15.7194
2023-05-06T06:47:06.551Z,15.7399
2023-05-06T06:48:06.677Z,15.7595
2023-05-06T06:49:06.708Z,15.7829
2023-05-06T06:50:07.737Z,15.8042
2023-05-06T06:52:08.582Z,15.8438
2023-05-06T06:53:09.908Z,15.8655
2023-05-06T06:54:11.102Z,15.8912
2023-05-06T06:55:11.696Z,15.9231
2023-05-06T06:56:11.624Z,15.9535
2023-05-06T06:57:11.611Z,15.9872
2023-05-06T06:58:12.666Z,16.0192
2023-05-06T06:59:14.040Z,16.0449
2023-05-06T07:00:15.052Z,16.0639
2023-05-06T07:03:17.628Z,16.0826
2023-05-06T07:04:18.933Z,16.0787
2023-05-06T07:05:19.941Z,16.0749
2023-05-06T07:06:20.790Z,16.0792
2023-05-06T07:07:21.131Z,16.1059
2023-05-06T07:08:21.659Z,16.1491
2023-05-06T07:09:22.401Z,16.2013
2023-05-06T07:10:22.668Z,16.2600
2023-05-06T07:11:23.041Z,16.3127
2023-05-06T07:12:23.649Z,16.3463
2023-05-06T07:13:24.469Z,16.3610
2023-05-06T07:14:25.224Z,16.3672
2023-05-06T07:16:25.796Z,16.3639
2023-05-06T07:17:26.150Z,16.3570
2023-05-06T07:18:26.106Z,16.3482
2023-05-06T07:19:26.279Z,16.3461
2023-05-06T07:20:27.329Z,16.3574
2023-05-06T07:21:28.459Z,16.3862
2023-05-06T07:22:28.616Z,16.4284
2023-05-06T07:23:31.897Z,16.4724
2023-05-06T07:24:30.885Z,16.5084
2023-05-06T07:25:32.059Z,16.5426
2023-05-06T07:26:33.414Z,16.5836
2023-05-06T07:27:34.711Z,16.5973
2023-05-06T07:28:35.941Z,16.6005
2023-05-06T07:29:36.105Z,16.5987
2023-05-06T07:30:37.438Z,16.5896
2023-05-06T07:31:37.768Z,16.5873
2023-05-06T07:32:38.927Z,16.5962
2023-05-06T07:33:40.252Z,16.6177
2023-05-06T07:34:41.359Z,16.6402
2023-05-06T07:35:41.525Z,16.6662
2023-05-06T07:36:42.764Z,16.6983
2023-05-06T07:37:43.763Z,16.7196
2023-05-06T07:38:44.800Z,16.7234
2023-05-06T07:39:45.660Z,16.7104
2023-05-06T07:40:46.822Z,16.6885
2023-05-06T07:41:47.349Z,16.6620
2023-05-06T07:42:48.253Z,16.6356
2023-05-06T07:43:48.416Z,16.6086
2023-05-06T07:44:49.208Z,16.5848
2023-05-06T07:45:50.200Z,16.5592
2023-05-06T07:46:51.244Z,16.5382
2023-05-06T07:47:51.077Z,16.5193
2023-05-06T07:48:51.864Z,16.5029
2023-05-06T07:49:52.597Z,16.4902
2023-05-06T07:50:53.018Z,16.4744
2023-05-06T07:51:54.902Z,16.4593
2023-05-06T07:52:54.995Z,16.4498
2023-05-06T07:53:55.624Z,16.4512
2023-05-06T07:54:56.606Z,16.4578
2023-05-06T07:55:56.779Z,16.4557
2023-05-06T07:56:57.226Z,16.4496
2023-05-06T07:57:58.506Z,16.4434
2023-05-06T07:58:59.778Z,16.4400
2023-05-06T07:59:59.982Z,16.4386
2023-05-06T08:01:01.282Z,16.4384
2023-05-06T08:02:02.580Z,16.4412
2023-05-06T08:03:04.060Z,16.4537
2023-05-06T08:04:04.152Z,16.4718
2023-05-06T08:05:04.913Z,16.4963
2023-05-06T08:07:12.970Z,16.5299
2023-05-06T08:08:14.214Z,16.5397
2023-05-06T08:09:22.241Z,16.5439
2023-05-06T08:10:15.798Z,16.5397
2023-05-06T08:11:18.823Z,16.5391
2023-05-06T08:12:17.599Z,16.5398
2023-05-06T08:13:18.900Z,16.5438
2023-05-06T08:14:20.137Z,16.5588
2023-05-06T08:15:20.129Z,16.5870
2023-05-06T08:16:22.576Z,16.6280
2023-05-06T08:17:21.800Z,16.6775
2023-05-06T08:18:23.496Z,16.7368
2023-05-06T08:19:23.469Z,16.8106
2023-05-06T08:20:23.279Z,16.8881
2023-05-06T08:21:24.153Z,16.9699
2023-05-06T08:22:25.360Z,17.0473
2023-05-06T08:23:26.412Z,17.1333
2023-05-06T08:24:27.292Z,17.2237
2023-05-06T08:25:27.416Z,17.3120
2023-05-06T08:26:28.509Z,17.3917
2023-05-06T08:27:29.298Z,17.4615
2023-05-06T08:28:30.194Z,17.5261
2023-05-06T08:29:31.008Z,17.5907
2023-05-06T08:30:32.138Z,17.6429
2023-05-06T08:31:33.191Z,17.6852
2023-05-06T08:32:33.300Z,17.7166
2023-05-06T08:33:33.512Z,17.7471
2023-05-06T08:34:33.759Z,17.7802
2023-05-06T08:35:34.010Z,17.8145
2023-05-06T08:36:34.831Z,17.8504
2023-05-06T08:37:35.906Z,17.8885
2023-05-06T08:38:36.809Z,17.9228
2023-05-06T08:39:37.822Z,17.9528
2023-05-06T08:40:38.685Z,17.9762
2023-05-06T08:41:39.972Z,17.9986
2023-05-06T08:42:41.122Z,18.0180
2023-05-06T08:43:42.183Z,18.0377
2023-05-06T08:44:43.213Z,18.0498
2023-05-06T08:45:44.163Z,18.0571
2023-05-06T08:46:44.451Z,18.0559
2023-05-06T08:47:45.482Z,18.0577
2023-05-06T08:48:46.320Z,18.0675
2023-05-06T08:49:47.441Z,18.0750
2023-05-06T08:50:48.468Z,18.0676
2023-05-06T08:51:49.712Z,18.0576
2023-05-06T08:52:51.036Z,18.0578
2023-05-06T08:53:52.188Z,18.0633
2023-05-06T08:54:52.295Z,18.0692
2023-05-06T08:55:52.485Z,18.0806
2023-05-06T08:56:53.772Z,18.1096
2023-05-06T08:57:54.276Z,18.1501
2023-05-06T08:58:55.369Z,18.1982
2023-05-06T08:59:56.647Z,18.2523
2023-05-06T09:00:57.487Z,18.3092
2023-05-06T09:01:57.719Z,18.3676
2023-05-06T09:02:58.853Z,18.4136
2023-05-06T09:03:59.617Z,18.4459
2023-05-06T09:05:00.847Z,18.4634
2023-05-06T09:06:00.854Z,18.4781
2023-05-06T09:07:01.990Z,18.4912
2023-05-06T09:08:03.266Z,18.4995
2023-05-06T09:09:04.508Z,18.4936
2023-05-06T09:10:05.347Z,18.4816
2023-05-06T09:11:06.380Z,18.4769
2023-05-06T09:12:07.610Z,18.4776
2023-05-06T09:13:08.684Z,18.4792
2023-05-06T09:14:09.840Z,18.4847
2023-05-06T09:15:10.741Z,18.4898
2023-05-06T09:16:11.688Z,18.4942
2023-05-06T09:17:12.849Z,18.5114
2023-05-06T09:18:13.066Z,18.5380
2023-05-06T09:19:14.017Z,18.5771
2023-05-06T09:20:14.817Z,18.6217
2023-05-06T09:21:15.456Z,18.6589
2023-05-06T09:22:15.609Z,18.6924
2023-05-06T09:23:16.603Z,18.7233
2023-05-06T09:24:17.647Z,18.7485
2023-05-06T09:25:18.603Z,18.7686
2023-05-06T09:26:19.575Z,18.7911
2023-05-06T09:27:20.108Z,18.8171
2023-05-06T09:28:21.395Z,18.8472
2023-05-06T09:29:22.406Z,18.8767
2023-05-06T09:30:23.625Z,18.9071
2023-05-06T09:31:24.368Z,18.9347
2023-05-06T09:32:25.377Z,18.9569
2023-05-06T09:33:25.905Z,18.9744
2023-05-06T09:34:26.986Z,18.9862
2023-05-06T09:35:27.037Z,18.9902
2023-05-06T09:36:28.381Z,18.9888
2023-05-06T09:37:29.399Z,18.9817
2023-05-06T09:38:30.358Z,18.9710
2023-05-06T09:39:31.351Z,18.9591
2023-05-06T09:40:32.268Z,18.9502
2023-05-06T09:41:33.265Z,18.9453
2023-05-06T09:42:34.190Z,18.9416
2023-05-06T09:43:35.206Z,18.9407
2023-05-06T09:44:36.538Z,18.9451
2023-05-06T09:45:37.336Z,18.9547
2023-05-06T09:46:38.751Z,18.9672
2023-05-06T09:47:39.079Z,18.9765
2023-05-06T09:48:39.096Z,18.9899
2023-05-06T09:49:40.064Z,19.0100
2023-05-06T09:50:40.975Z,19.0347
2023-05-06T09:51:41.938Z,19.0561
2023-05-06T09:52:43.052Z,19.0796
2023-05-06T09:53:44.107Z,19.1160
2023-05-06T09:54:45.021Z,19.1833
2023-05-06T09:55:45.131Z,19.2636
2023-05-06T09:56:46.188Z,19.3595
2023-05-06T09:57:46.468Z,19.4594
2023-05-06T09:58:47.529Z,19.5646
2023-05-06T09:59:48.656Z,19.6564
2023-05-06T10:00:48.836Z,19.7336
2023-05-06T10:01:49.247Z,19.7983
2023-05-06T10:02:49.448Z,19.8666
2023-05-06T10:03:49.617Z,19.8987
2023-05-06T10:04:50.229Z,19.8929
2023-05-06T10:05:50.870Z,19.8711
2023-05-06T10:06:51.821Z,19.8470
2023-05-06T10:07:52.869Z,19.8243
2023-05-06T10:08:53.884Z,19.7993
2023-05-06T10:09:54.981Z,19.7800
2023-05-06T10:10:56.014Z,19.7623
2023-05-06T10:11:57.044Z,19.7512
2023-05-06T10:12:57.181Z,19.7404
2023-05-06T10:13:58.294Z,19.7327
2023-05-06T10:14:58.440Z,19.7276
2023-05-06T10:15:59.605Z,19.7245
2023-05-06T10:16:59.939Z,19.7247
2023-05-06T10:18:00.253Z,19.7249
2023-05-06T10:19:01.221Z,19.7280
2023-05-06T10:20:01.881Z,19.7319
2023-05-06T10:21:02.818Z,19.7345
2023-05-06T10:22:05.587Z,19.7399
2023-05-06T10:23:04.580Z,19.7495
2023-05-06T10:24:05.403Z,19.7658
2023-05-06T10:25:06.567Z,19.7843
2023-05-06T10:26:07.719Z,19.8079
2023-05-06T10:27:08.766Z,19.8369
2023-05-06T10:28:23.170Z,19.8682
2023-05-06T10:29:13.412Z,19.9159
2023-05-06T10:30:14.560Z,19.9658
2023-05-06T10:31:15.691Z,20.0245
2023-05-06T10:32:15.608Z,20.0928
2023-05-06T10:33:16.948Z,20.1787
2023-05-06T10:34:18.025Z,20.2708
2023-05-06T10:36:18.865Z,20.4678
2023-05-06T10:37:19.935Z,20.5675
2023-05-06T10:38:20.875Z,20.6730
2023-05-06T10:39:21.931Z,20.7747
2023-05-06T10:40:23.098Z,20.8854
2023-05-06T10:41:24.065Z,21.0072
2023-05-06T10:42:25.453Z,21.1292
2023-05-06T10:43:26.495Z,21.2467
2023-05-06T10:44:27.619Z,21.3551
2023-05-06T10:45:28.769Z,21.4469
2023-05-06T10:46:29.801Z,21.5307
2023-05-06T10:47:30.900Z,21.5927
2023-05-06T10:48:32.009Z,21.6327
2023-05-06T10:49:33.340Z,21.6584
2023-05-06T10:50:34.482Z,21.6843
2023-05-06T10:51:35.397Z,21.7123
2023-05-06T10:52:36.652Z,21.7485
2023-05-06T10:53:37.546Z,21.7870
2023-05-06T10:56:39.279Z,21.8904
2023-05-06T10:57:40.292Z,21.9436
2023-05-06T10:58:41.474Z,22.0011
2023-05-06T10:59:42.599Z,22.0644
2023-05-06T11:00:43.432Z,22.1179
2023-05-06T11:01:43.711Z,22.1644
2023-05-06T11:02:49.398Z,22.2097
2023-05-06T11:03:49.983Z,22.2459
2023-05-06T11:04:51.004Z,22.2762
2023-05-06T11:05:52.139Z,22.3027
2023-05-06T11:06:53.195Z,22.3302
2023-05-06T11:07:54.322Z,22.3669
2023-05-06T11:08:55.369Z,22.4334
2023-05-06T11:09:56.389Z,22.5126
2023-05-06T11:10:57.404Z,22.6089
2023-05-06T11:11:58.333Z,22.7032
2023-05-06T11:12:58.557Z,22.7755
2023-05-06T11:13:59.728Z,22.8053
2023-05-06T11:15:00.906Z,22.8404
2023-05-06T11:16:02.105Z,22.8626
2023-05-06T11:17:03.630Z,22.8928
2023-05-06T11:18:04.755Z,22.9283
2023-05-06T11:19:04.856Z,22.9689
2023-05-06T11:21:05.230Z,23.1199
2023-05-06T11:22:06.246Z,23.2203
2023-05-06T11:23:06.383Z,23.3017
2023-05-06T11:24:07.293Z,23.3728
2023-05-06T11:25:08.298Z,23.4646
2023-05-06T11:26:09.329Z,23.5421
2023-05-06T11:27:10.671Z,23.5685
2023-05-06T11:28:10.900Z,23.5365
2023-05-06T11:29:11.508Z,23.4822
2023-05-06T11:30:12.785Z,23.4170
2023-05-06T11:31:12.661Z,23.3501
2023-05-06T11:32:12.865Z,23.2854
2023-05-06T11:33:14.031Z,23.2184
2023-05-06T11:34:15.291Z,23.1570
2023-05-06T11:35:16.215Z,23.1061
2023-05-06T11:36:17.390Z,23.0587
2023-05-06T11:37:18.519Z,23.0206
2023-05-06T11:38:18.584Z,23.0074
2023-05-06T11:39:19.633Z,23.0136
2023-05-06T11:40:19.875Z,23.0199
2023-05-06T11:41:20.852Z,23.0179
2023-05-06T11:42:21.769Z,23.0147
2023-05-06T11:43:22.830Z,23.0245
2023-05-06T11:44:23.891Z,23.0428
2023-05-06T11:46:24.595Z,23.1014
2023-05-06T11:47:24.736Z,23.1215
2023-05-06T11:48:24.750Z,23.1450
2023-05-06T11:49:26.063Z,23.2665
2023-05-06T11:50:26.245Z,23.4530
2023-05-06T11:51:27.415Z,23.5806
2023-05-06T11:52:27.503Z,23.6218
2023-05-06T11:53:27.840Z,23.6343
2023-05-06T11:55:28.991Z,23.6129
2023-05-06T11:56:29.475Z,23.5709
2023-05-06T11:57:30.635Z,23.5168
2023-05-06T11:58:30.773Z,23.4629
2023-05-06T11:59:31.432Z,23.4060
2023-05-06T12:00:31.715Z,23.3508
2023-05-06T12:01:31.992Z,23.2943
2023-05-06T12:02:32.763Z,23.2397
2023-05-06T12:03:34.738Z,23.1737
2023-05-06T12:04:34.952Z,23.1000
2023-05-06T12:05:36.414Z,23.0364
2023-05-06T12:07:36.017Z,23.0320
2023-05-06T12:08:36.036Z,23.1508
2023-05-06T12:09:36.117Z,23.3416
2023-05-06T12:10:37.137Z,23.5422
2023-05-06T12:11:37.218Z,23.8089
2023-05-06T12:12:37.963Z,24.1285
2023-05-06T12:13:38.953Z,24.4718
2023-05-06T12:14:39.245Z,24.8102
2023-05-06T12:15:39.832Z,25.1540
2023-05-06T12:16:40.114Z,25.4589
2023-05-06T12:18:44.137Z,26.0002
2023-05-06T12:19:45.399Z,26.2140
2023-05-06T12:20:45.851Z,26.4791
2023-05-06T12:21:45.909Z,26.7491
2023-05-06T12:22:46.321Z,27.0349
2023-05-06T12:23:48.535Z,27.2972
2023-05-06T12:25:36.641Z,27.7529
2023-05-06T12:26:37.770Z,27.9937
2023-05-06T12:27:38.135Z,28.2182
2023-05-06T12:28:38.420Z,28.4268
2023-05-06T12:29:39.392Z,28.6395
2023-05-06T12:30:40.721Z,28.8447
2023-05-06T12:31:41.998Z,29.0434
2023-05-06T12:32:42.096Z,29.2311
2023-05-06T12:33:43.429Z,29.3726